createdAt,value
2017-07-18T00:00:16.985Z,1012.9
2017-07-18T00:01:18.557Z,1012.9
2017-07-18T00:02:19.965Z,1012.9
2017-07-18T00:03:21.626Z,1013.0
2017-07-18T00:04:23.278Z,1012.9
2017-07-18T00:06:04.651Z,1013.0
2017-07-18T00:07:06.531Z,1012.9
2017-07-18T00:08:29.546Z,1013.0
2017-07-18T00:09:31.401Z,1012.9
2017-07-18T00:10:33.823Z,1012.9
2017-07-18T00:11:35.372Z,1012.9
2017-07-18T00:12:37.562Z,1012.9
2017-07-18T00:13:39.578Z,1012.9
2017-07-18T00:14:41.297Z,1012.9
2017-07-18T00:15:43.163Z,1012.9
2017-07-18T00:16:45.618Z,1012.8
2017-07-18T00:17:47.640Z,1012.9
2017-07-18T00:18:49.334Z,1012.9
2017-07-18T00:19:51.363Z,1012.9
2017-07-18T00:20:53.626Z,1012.9
2017-07-18T00:21:55.305Z,1012.8
2017-07-18T14:13:06.126Z,1009.0
2017-07-18T14:14:08.502Z,1009.0
2017-07-18T14:15:10.496Z,1009.0
2017-07-18T14:16:12.772Z,1009.0
2017-07-18T14:17:14.289Z,1008.9
2017-07-18T14:18:15.812Z,1008.9
2017-07-18T14:19:17.361Z,1008.8
2017-07-18T14:20:19.518Z,1008.9
2017-07-18T14:21:21.295Z,1008.8
2017-07-18T14:22:25.957Z,1008.8
2017-07-18T14:23:28.040Z,1008.8
2017-07-18T14:24:29.545Z,1008.8
2017-07-18T14:25:31.228Z,1008.7
2017-07-18T14:26:32.704Z,1008.7
2017-07-18T14:27:34.220Z,1008.7
2017-07-18T14:28:35.803Z,1008.7
2017-07-18T14:29:38.731Z,1008.7
2017-07-18T14:30:40.513Z,1008.7
2017-07-18T14:31:43.072Z,1008.7
2017-07-18T14:32:45.284Z,1008.6
2017-07-18T14:33:46.747Z,1008.7
2017-07-18T14:34:48.458Z,1008.6
2017-07-18T14:35:50.624Z,1008.6
2017-07-18T14:36:52.561Z,1008.7
2017-07-18T14:37:54.136Z,1008.6
2017-07-18T14:38:55.858Z,1008.6
2017-07-18T14:39:57.681Z,1008.6
2017-07-18T14:40:59.549Z,1008.6
2017-07-18T14:42:01.102Z,1008.6
2017-07-18T14:43:02.820Z,1008.6
2017-07-18T14:44:04.530Z,1008.6
2017-07-18T14:45:06.360Z,1008.5
2017-07-18T14:46:08.706Z,1008.5
2017-07-18T14:47:10.413Z,1008.5
2017-07-18T14:48:11.915Z,1008.6
2017-07-18T14:49:13.479Z,1008.5
2017-07-18T14:50:15.741Z,1008.5
2017-07-18T14:51:17.230Z,1008.5
2017-07-18T14:52:18.802Z,1008.5
2017-07-18T14:53:20.271Z,1008.5
2017-07-18T14:54:21.931Z,1008.5
2017-07-18T14:55:23.644Z,1008.5
2017-07-18T14:56:25.081Z,1008.5
2017-07-18T14:57:26.896Z,1008.5
2017-07-18T14:58:29.251Z,1008.4
2017-07-18T14:59:30.717Z,1008.4
2017-07-18T15:00:32.469Z,1008.4
2017-07-18T15:01:36.143Z,1008.4
2017-07-18T15:02:37.949Z,1008.4
2017-07-18T15:03:40.167Z,1008.4
2017-07-18T15:04:42.261Z,1008.3
2017-07-18T15:05:44.537Z,1008.4
2017-07-18T15:06:46.102Z,1008.3
2017-07-18T15:07:47.559Z,1008.3
2017-07-18T15:08:49.075Z,1008.3
2017-07-18T15:09:50.805Z,1008.3
2017-07-18T15:10:52.678Z,1008.3
2017-07-18T15:11:54.216Z,1008.2
2017-07-18T15:12:57.923Z,1008.3
2017-07-18T15:13:59.504Z,1008.2
2017-07-18T15:15:01.057Z,1008.2
2017-07-18T15:16:02.722Z,1008.2
2017-07-18T15:17:04.403Z,1008.2
2017-07-18T15:18:05.919Z,1008.2
2017-07-18T15:19:07.576Z,1008.1
2017-07-18T15:20:09.384Z,1008.0
2017-07-18T15:21:11.223Z,1008.0
2017-07-18T15:22:12.669Z,1008.0
2017-07-18T15:23:14.152Z,1008.0
2017-07-18T15:24:15.744Z,1007.9
2017-07-18T15:25:17.448Z,1007.9
2017-07-18T15:26:21.721Z,1007.8
2017-07-18T15:27:24.206Z,1007.8
2017-07-18T15:28:27.528Z,1007.8
2017-07-18T15:29:30.763Z,1007.8
2017-07-18T15:30:39.441Z,1007.8
2017-07-18T15:31:42.137Z,1007.8
2017-07-18T15:32:45.497Z,1007.7
2017-07-18T15:33:48.584Z,1007.7
2017-07-18T15:34:53.321Z,1007.7
2017-07-18T15:35:56.395Z,1007.8
2017-07-18T15:37:00.831Z,1007.7
2017-07-18T15:38:04.394Z,1007.7
2017-07-18T15:39:07.157Z,1007.7
